Dupecheck Project

2014-07-29 15:19:27ImagesetTeen.Truth.Or.Dare.XXX.720p.WEBRiP.WMV-TBP
2014-07-29 15:16:49TvHostages.S01E06.GERMAN.DUBBED.720p.WebHD.h264-iNFOTv
2014-07-29 15:16:43TvHostages.S01E06.GERMAN.DUBBED.WEBRiP.x264-iNFOTv
2014-07-29 15:15:59TvHBO.Documentaries.Love.Child.HDTV.x264-BATV
2014-07-29 15:15:57DvdrHBO.Documentaries.Love.Child.HDTV.x264-BATV
2014-07-29 15:15:46TvHostages.S01E06.GERMAN.DL.DUBBED.1080p.WebHD.h264-iNFOTv
2014-07-29 15:14:25ImagesetLivingWithAPornstar.14.07.28.Suhaila.Hard.Boobcycling.XXX.720p.MP4-KTR
2014-07-29 15:14:00TvDragon.Ball.Z.S03E32.1080p.REAL.WS.BluRay.x264-TENEIGHTY
2014-07-29 15:13:37ImagesetFuckinVan.14.07.29.Valeria.Blue.Sweating.In.The.Fuckinvan.XXX.720p.MP4-KTR
2014-07-29 15:12:59Mp3Theory_Of_A_Deadman-Savages-CD-FLAC-2014-FORSAKEN
2014-07-29 15:12:54ImagesetAssTraffic.14.07.29.Grace.Joy.XXX.1080p.MP4-KTR
2014-07-29 15:12:08ImagesetAllInternal.14.07.26.Christen.XXX.1080p.MP4-KTR
2014-07-29 15:10:120dayVillage.Quest.GAME.FRENCH-NGEN
2014-07-29 15:08:52Mp3Hans_Bouffmyhre_And_Lex_Gorrie_-_Floating_(ANT058)-WEB-2014-TR
2014-07-29 15:07:44TvDragon.Ball.Z.S03E31.1080p.REAL.WS.BluRay.x264-TENEIGHTY
2014-07-29 15:05:53Mp3Theory_Of_A_Deadman-Savages-2014-MTD
2014-07-29 15:02:46TvDragon.Ball.Z.S03E30.1080p.REAL.WS.BluRay.x264-TENEIGHTY
2014-07-29 15:01:19ConsoleFighter.Within.XBOXONE-WaYsTeD
2014-07-29 14:59:31TvDragon.Ball.Z.S03E29.1080p.REAL.WS.BluRay.x264-TENEIGHTY
2014-07-29 14:57:49TvLes.Nouveaux.Explorateurs.Manuel.Herrero.En.Israel.Et.Palestine.DOC.FRENCH.720p.HDTV.x264-DEAL
2014-07-29 14:57:47DvdrLes.Nouveaux.Explorateurs.Manuel.Herrero.En.Israel.Et.Palestine.DOC.FRENCH.720p.HDTV.x264-DEAL
2014-07-29 14:55:41TvDragon.Ball.Z.S03E28.1080p.REAL.WS.BluRay.x264-TENEIGHTY
2014-07-29 14:49:14TvDragon.Ball.Z.S03E27.1080p.REAL.WS.BluRay.x264-TENEIGHTY
2014-07-29 14:43:56TvDragon.Ball.Z.S03E26.1080p.REAL.WS.BluRay.x264-TENEIGHTY
2014-07-29 14:38:35TvDragon.Ball.Z.S03E25.1080p.REAL.WS.BluRay.x264-TENEIGHTY
2014-07-29 14:36:53Mp3Secluded_-_Proceed_(SOMA410D)-WEB-2014-TR
2014-07-29 14:31:40TvDragon.Ball.Z.S03E24.1080p.REAL.WS.BluRay.x264-TENEIGHTY
2014-07-29 14:30:04Mp3Sterac--Klockworks_12-(KW012)-WEB-2014-SiBERiA
2014-07-29 14:29:33Mp3Diamond_Version--CI-(ISTUMMDV1)-WEB-2014-SiBERiA
2014-07-29 14:29:04Mp3Dewalta_And_Shannon--The_Runaway_Sugar_Cube_EP-(CYN097)-WEB-2014-SiBERiA
2014-07-29 14:28:34Mp3Carlos_Nilmmns__Davina__Niko_Marks--Get_By_Me-(ORN030)-WEB-2014-SiBERiA
2014-07-29 14:28:04Mp3Aura_Fresh--Space_And_Time_Continuum_EP-(CPR006)-WEB-2012-SiBERiA
2014-07-29 14:27:33Mp3Aura_Fresh--Quasar-(CPR002)-WEB-2010-SiBERiA
2014-07-29 14:27:03Mp3Aura_Fresh--Modular_Chord_Impressions_Vol_1_EP-(CPR007)-WEB-2013-SiBERiA
2014-07-29 14:26:33Mp3Aura_Fresh--Im_In_Dub_With_You-(CPR001)-WEB-2010-SiBERiA
2014-07-29 14:26:03Mp3Aura_Fresh--Cinque_Terre-(CPR005)-WEB-2012-SiBERiA
2014-07-29 14:25:34Mp3Aura_Fresh--Blue_Deepness-(CPR004)-WEB-2011-SiBERiA
2014-07-29 14:23:09TvWinners.and.Losers.S04E05.PDTV.x264-W4F
2014-07-29 14:22:15ImagesetSlutty.And.Sluttier.16.XXX.1080p.WEBRiP.MP4-TBP
2014-07-29 14:21:55ImagesetBlackGFs.14.07.29.Sexy.Snap.Shot.XXX.HR.MP4-KTR
2014-07-29 14:18:52TvDragon.Ball.Z.S03E23.1080p.REAL.WS.BluRay.x264-TENEIGHTY
2014-07-29 14:16:37XxxBush.Gardens.XXX.720P.WEBRIP.MP4-GUSH
2014-07-29 14:15:51TvThe.Returned.S01E06.1080p.BluRay.x264-FLHD
2014-07-29 14:09:52TvJimmy.Fallon.2014.07.25.Jon.Hamm.NLSUBBED.720p.HDTV.x264-iFH
2014-07-29 14:09:51DvdrJimmy.Fallon.2014.07.25.Jon.Hamm.NLSUBBED.720p.HDTV.x264-iFH
2014-07-29 13:53:06TvDragon.Ball.Z.S03E22.1080p.REAL.WS.BluRay.x264-TENEIGHTY
2014-07-29 13:44:36TvDragon.Ball.Z.S03E21.1080p.REAL.WS.BluRay.x264-TENEIGHTY
2014-07-29 13:40:30TvDragon.Ball.Z.S03E20.1080p.REAL.WS.BluRay.x264-TENEIGHTY
2014-07-29 13:39:35TvPerson.Of.Interest.S03E10.iTALiAN.HDTV.x264-iDiB
2014-07-29 13:39:32TvPerson.Of.Interest.S03E09.iTALiAN.HDTV.x264-iDiB
^^ Top ^^
Copyright © 2008, D00P Project